Main page
METAR-TAF:

METAR-TAF

Airports :

Dr. Babasaheb Ambedkar International Airport

Nagpur, India

latitude: 21-06N, longitude: 079-03E, elevation: 308 m

Current weather observation

The report was made 23 minutes ago, at 20:30 UTC
Calm wind
Temperature 28°C
Humidity 74%
Pressure 1001 hPa
Visibility: 3000 m
Scattered clouds at a height of 2000 ft
Broken clouds at a height of 9000 ft
haze

METAR: VANP 252030Z 00000KT 3000 HZ SCT020 BKN090 28/23 Q1001 NOSIG

Time: 02:23 (20:53 UTC)

Forecast

The report was made 53 minutes ago, at 20:00 UTC
Forecast valid from 25 at 21 UTC to 26 at 06 UTC
Wind 5 kt from the Southwest
Visibility: 2500 m
Scattered clouds at a height of 2000 ft
Broken clouds at a height of 9000 ft
haze, light rain
Becoming
from 26 at 02 UTC to 26 at 04 UTC
Visibility: 3000 m
Scattered clouds at a height of 2000 ft
Broken clouds at a height of 9000 ft
haze, thunderstorm, rain

TAF: VANP 252000Z 2521/2606 23005KT 2500 HZ -RA SCT020 BKN090 BECMG 2602/2604 3000 HZ TSRA SCT020 FEWCB030 BKN090

Weather observations and forecasts of more than 4000 airports (METAR and TAF reports).

The available stations are represented by yellow and red dots on the map.

Hover mouse over dot to see the name of the station.

Then click to see weather observations and forecasts.

To change the map : click on the green buttons with a black cross to zoom in, on the green button with a dash to zoom out, or on the green arrows for adjacent maps.


METAR-TAF: